• Join FlightAware (Why Join?)
  • Login
  • US Flag 
03:35PM EDT


 

Airport Tracker/Info


-or-


 

Live Flight TrackerFlight Track Log ✈ N759PA ✈ 19-Jul-2013 ✈ KELP - KGTU

Flight Track Log - Related Links

Times and Time Zones

All times are in EDT time to prevent confusion due to time zone crossing. See the N759PA flight status page for this flight to view local times or setup timezone preferences in your user account.

Time Position Orientation Groundspeed Altitude Reporting Facility
EDT Latitude Longitude Course Direction KTS MPH feet Rate Location/Type
01:31PM 31.7792 -106.3811 136° Southeast 89 102 4,800  Level Albuquerque Center
01:32PM 31.7669 -106.3644 131° Southeast 83 96 5,200 480 Climbing Albuquerque Center
01:33PM 31.7522 -106.3414 127° Southeast 85 98 5,700 480 Climbing Albuquerque Center
01:34PM 31.7489 -106.3156 99° East 81 93 6,200 420 Climbing Albuquerque Center
01:35PM 31.7472 -106.2767 93° East 88 101 6,700 420 Climbing Albuquerque Center
01:36PM 31.7472 -106.2519 90° East 85 98 7,100 360 Climbing Albuquerque Center
01:37PM 31.7439 -106.2225 98° East 86 99 7,500 300 Climbing Albuquerque Center
01:38PM 31.7408 -106.1944 97° East 88 101 7,800 300 Climbing Albuquerque Center
01:39PM 31.7392 -106.1672 94° East 85 98 8,200 300 Climbing Albuquerque Center
01:40PM 31.7356 -106.1394 99° East 86 99 8,500 300 Climbing Albuquerque Center
01:41PM 31.7325 -106.1056 96° East 86 99 8,900 360 Climbing Albuquerque Center
01:42PM 31.7286 -106.0767 99° East 89 102 9,300 300 Climbing Albuquerque Center
01:43PM 31.7261 -106.0486 96° East 87 100 9,600 240 Climbing Albuquerque Center
01:44PM 31.7231 -106.0222 98° East 83 96 9,900 240 Climbing Albuquerque Center
01:45PM 31.7203 -105.9939 97° East 86 99 10,200 240 Climbing Albuquerque Center
01:46PM 31.7172 -105.9639 97° East 90 104 10,500 240 Climbing Albuquerque Center
01:47PM 31.7119 -105.9297 100° East 89 102 10,800 240 Climbing Albuquerque Center
01:48PM 31.7047 -105.9025 107° East 89 102 11,000 60 Climbing Albuquerque Center
01:49PM 31.6961 -105.8708 108° East 98 113 11,000  Level Albuquerque Center
01:50PM 31.6875 -105.8356 106° East 108 124 11,000  Level Albuquerque Center
01:51PM 31.6789 -105.7994 106° East 113 130 11,000  Level Albuquerque Center
01:52PM 31.6683 -105.7636 109° East 115 132 11,000  Level Albuquerque Center
01:53PM 31.6578 -105.7192 106° East 117 135 11,000  Level Albuquerque Center
01:54PM 31.6489 -105.6822 106° East 118 136 11,000  Level Albuquerque Center
01:55PM 31.6386 -105.6456 108° East 118 136 11,000  Level Albuquerque Center
01:56PM 31.6292 -105.6092 107° East 118 136 11,000  Level Albuquerque Center
01:57PM 31.6197 -105.5747 108° East 113 130 11,000  Level Albuquerque Center
01:59PM 31.6111 -105.5389 106° East 113 130 11,000  Level Albuquerque Center
02:00PM 31.5997 -105.4975 108° East 112 129 11,000  Level Albuquerque Center
02:01PM 31.5906 -105.4581 105° East 120 138 11,000  Level Albuquerque Center
02:02PM 31.5817 -105.4236 107° East 114 131 11,000  Level Albuquerque Center
02:03PM 31.5714 -105.3889 109° East 112 129 11,000  Level Albuquerque Center
02:04PM 31.5625 -105.3547 107° East 111 128 11,000  Level Albuquerque Center
02:05PM 31.5522 -105.3203 109° East 111 128 11,000  Level Albuquerque Center
02:06PM 31.5394 -105.2786 110° East 112 129 11,000  Level Albuquerque Center
02:07PM 31.5289 -105.2425 109° East 114 131 11,000  Level Albuquerque Center
02:08PM 31.5181 -105.2067 110° East 116 133 11,000  Level Albuquerque Center
02:09PM 31.5081 -105.1717 109° East 115 132 11,000  Level Albuquerque Center
02:10PM 31.4975 -105.1367 109° East 114 131 11,000  Level Albuquerque Center
02:11PM 31.4872 -105.1017 109° East 114 131 11,000 -60 Level Albuquerque Center
02:12PM 31.4725 -105.0561 111° Southeast 120 138 10,900  Descending Albuquerque Center
02:13PM 31.4622 -105.0197 108° East 118 136 11,000  Climbing Albuquerque Center
02:14PM 31.4514 -104.9817 108° East 122 140 11,000  Level Albuquerque Center
02:15PM 31.4403 -104.9456 110° East 119 137 11,000  Level Albuquerque Center
02:16PM 31.4297 -104.9086 109° East 119 137 11,000  Level Albuquerque Center
02:17PM 31.4192 -104.8711 108° East 121 139 11,000  Level Albuquerque Center
02:18PM 31.4081 -104.8353 110° East 118 136 11,000  Level Albuquerque Center
02:19PM 31.3944 -104.7908 110° East 120 138 11,000  Level Albuquerque Center
02:20PM 31.3844 -104.7561 109° East 115 132 11,000  Level Albuquerque Center
02:21PM 31.3733 -104.7181 109° East 120 138 11,000  Level Albuquerque Center
02:22PM 31.3622 -104.6803 109° East 123 142 11,000  Level Albuquerque Center
02:23PM 31.3494 -104.6425 112° Southeast 124 143 11,000  Level Albuquerque Center
02:24PM 31.3389 -104.6061 109° East 121 139 11,000  Level Albuquerque Center
02:25PM 31.3281 -104.5700 109° East 119 137 11,000  Level Albuquerque Center
02:26PM 31.3144 -104.5244 109° East 121 139 11,000  Level Albuquerque Center
02:27PM 31.3031 -104.4864 109° East 124 143 11,000  Level Albuquerque Center
02:28PM 31.2922 -104.4475 108° East 125 144 11,000  Level Albuquerque Center
02:29PM 31.2794 -104.4117 113° Southeast 122 140 11,000  Level Albuquerque Center
02:31PM 31.2700 -104.3742 106° East 121 139 11,000  Level Albuquerque Center
02:32PM 31.2583 -104.3392 111° Southeast 117 135 11,000  Level Albuquerque Center
02:33PM 31.2472 -104.3039 110° East 115 132 11,000  Level Albuquerque Center
02:34PM 31.2353 -104.2619 108° East 115 132 11,000  Level Albuquerque Center
02:35PM 31.2247 -104.2275 110° East 114 131 11,000  Level Albuquerque Center
02:36PM 31.2139 -104.1922 110° East 115 132 11,000  Level Albuquerque Center
02:37PM 31.2014 -104.1547 111° Southeast 120 138 11,000  Level Albuquerque Center
02:38PM 31.1917 -104.1167 107° East 123 142 11,000  Level Albuquerque Center
02:39PM 31.1844 -104.0775 102° East 124 143 11,000  Level Albuquerque Center
02:40PM 31.1747 -104.0317 104° East 122 140 11,000  Level Albuquerque Center
02:41PM 31.1669 -103.9919 103° East 124 143 11,000  Level Albuquerque Center
02:42PM 31.1586 -103.9519 104° East 125 144 11,000  Level Albuquerque Center
02:43PM 31.1494 -103.9133 105° East 124 143 11,000  Level Albuquerque Center
02:44PM 31.1417 -103.8761 104° East 121 139 11,000  Level Albuquerque Center
02:45PM 31.1347 -103.8408 103° East 114 131 11,000  Level Albuquerque Center
02:46PM 31.1267 -103.8047 105° East 114 131 11,000  Level Albuquerque Center
02:47PM 31.1186 -103.7625 103° East 118 136 11,000  Level Albuquerque Center
02:48PM 31.1103 -103.7269 105° East 115 132 11,000 -60 Level Albuquerque Center
02:49PM 31.1025 -103.6906 104° East 116 133 10,900  Descending Albuquerque Center
02:50PM 31.0925 -103.6456 105° East 118 136 11,000  Climbing Albuquerque Center
02:51PM 31.0853 -103.6094 103° East 116 133 11,000  Level Albuquerque Center
02:52PM 31.0781 -103.5711 102° East 120 138 11,000  Level Albuquerque Center
02:53PM 31.0700 -103.5344 104° East 118 136 11,000  Level Albuquerque Center
02:54PM 31.0631 -103.4986 103° East 116 133 11,000  Level Albuquerque Center
02:55PM 31.0542 -103.4614 106° East 118 136 11,000 -60 Level Albuquerque Center
02:56PM 31.0453 -103.4164 103° East 119 137 10,900  Descending Albuquerque Center
02:57PM 31.0369 -103.3800 105° East 118 136 11,000  Climbing Albuquerque Center
02:58PM 31.0283 -103.3428 105° East 118 136 11,000 -60 Level Albuquerque Center
02:59PM 31.0211 -103.3067 103° East 116 133 10,900  Descending Albuquerque Center
03:00PM 31.0131 -103.2692 104° East 118 136 11,000  Climbing Albuquerque Center
03:01PM 31.0053 -103.2322 104° East 119 137 11,000 -60 Level Albuquerque Center
03:02PM 30.9972 -103.1961 105° East 116 133 10,900  Descending Albuquerque Center
03:04PM 30.9883 -103.1533 104° East 114 131 11,000  Climbing Albuquerque Center
03:05PM 30.9806 -103.1142 103° East 118 136 11,000  Level Albuquerque Center
03:06PM 30.9719 -103.0753 104° East 121 139 11,000  Level Albuquerque Center
03:07PM 30.9642 -103.0372 103° East 122 140 11,000  Level Albuquerque Center
03:08PM 30.9547 -102.9975 105° East 124 143 11,000  Level Albuquerque Center
03:09PM 30.9472 -102.9597 103° East 123 142 11,000  Level Albuquerque Center
03:10PM 30.9447 -102.9122 93° East 123 142 11,000  Level Albuquerque Center
03:11PM 30.9403 -102.8733 98° East 122 140 11,000  Level Albuquerque Center
03:12PM 30.9361 -102.8339 97° East 123 142 11,000  Level Albuquerque Center
03:13PM 30.9325 -102.7950 96° East 122 140 11,000  Level Albuquerque Center
03:14PM 30.9294 -102.7544 95° East 124 143 11,000  Level Albuquerque Center
03:15PM 30.9242 -102.7131 98° East 126 145 11,000  Level Albuquerque Center
03:16PM 30.9194 -102.6667 97° East 124 143 11,000  Level Albuquerque Center
03:17PM 30.9158 -102.6267 96° East 124 143 11,000  Level Albuquerque Center
03:18PM 30.9114 -102.5864 97° East 125 144 11,000  Level Albuquerque Center
03:19PM 30.9075 -102.5456 96° East 126 145 11,000  Level Albuquerque Center
03:20PM 30.9033 -102.5056 97° East 126 145 11,000  Level Albuquerque Center
03:21PM 30.8981 -102.4658 99° East 125 144 11,000  Level Albuquerque Center
03:22PM 30.8953 -102.4250 95° East 126 145 11,000  Level Albuquerque Center
03:23PM 30.8903 -102.3761 97° East 127 146 11,000 -60 Level Albuquerque Center
03:24PM 30.8872 -102.3531 99° East 125 144 10,900 -60 Descending Houston Center
03:25PM 30.8833 -102.3131 96° East 125 144 10,900  Level Houston Center
03:26PM 30.8786 -102.2711 97° East 129 148 10,900  Level Houston Center
03:27PM 30.8731 -102.2214 97° East 129 148 10,900  Level Houston Center
03:28PM 30.8697 -102.1808 95° East 127 146 10,900  Level Houston Center
03:29PM 30.8647 -102.1406 98° East 127 146 10,900  Level Houston Center
03:30PM 30.8606 -102.1003 97° East 126 145 10,900  Level Houston Center
03:31PM 30.8561 -102.0608 97° East 125 144 10,900  Level Houston Center
03:32PM 30.8517 -102.0125 96° East 125 144 10,900  Level Houston Center
03:33PM 30.8472 -101.9733 98° East 123 142 10,900  Level Houston Center
03:34PM 30.8431 -101.9333 97° East 125 144 10,900  Level Houston Center
03:35PM 30.8386 -101.8944 98° East 123 142 10,900  Level Houston Center
03:36PM 30.8342 -101.8536 97° East 125 144 10,900  Level Houston Center
03:37PM 30.8303 -101.8136 96° East 126 145 10,900  Level Houston Center
03:38PM 30.8256 -101.7736 98° East 125 144 10,900  Level Houston Center
03:39PM 30.8203 -101.7247 97° East 127 146 10,900  Level Houston Center
03:40PM 30.8156 -101.6842 98° East 127 146 10,900  Level Houston Center
03:41PM 30.8111 -101.6442 97° East 127 146 10,900  Level Houston Center
03:42PM 30.8075 -101.6042 96° East 126 145 10,900  Level Houston Center
03:43PM 30.8031 -101.5647 97° East 125 144 10,900  Level Houston Center
03:44PM 30.7992 -101.5153 95° East 126 145 10,900  Level Houston Center
03:45PM 30.7936 -101.4756 99° East 126 145 10,900  Level Houston Center
03:47PM 30.7894 -101.4344 97° East 127 146 10,900  Level Houston Center
03:48PM 30.7836 -101.3944 100° East 127 146 10,900  Level Houston Center
03:49PM 30.7800 -101.3519 96° East 128 147 10,900  Level Houston Center
03:50PM 30.7758 -101.3131 97° East 126 145 10,900  Level Houston Center
03:51PM 30.7703 -101.2633 97° East 128 147 10,900  Level Houston Center
03:52PM 30.7647 -101.2233 99° East 127 146 10,900  Level Houston Center
03:53PM 30.7619 -101.1808 94° East 128 147 10,900  Level Houston Center
03:54PM 30.7561 -101.1414 100° East 127 146 10,900  Level Houston Center
03:55PM 30.7528 -101.1003 95° East 127 146 10,900  Level Houston Center
03:56PM 30.7464 -101.0611 101° East 126 145 10,900  Level Houston Center
03:57PM 30.7408 -101.0122 98° East 126 145 10,900  Level Houston Center
03:58PM 30.7372 -100.9706 96° East 127 146 10,900  Level Houston Center
03:59PM 30.7317 -100.9297 99° East 128 147 10,900  Level Houston Center
04:00PM 30.7269 -100.8869 97° East 130 150 10,900  Level Houston Center
04:01PM 30.7219 -100.8464 98° East 130 150 10,900  Level Houston Center
04:02PM 30.7175 -100.8050 97° East 129 148 10,900  Level Houston Center
04:03PM 30.7117 -100.7544 98° East 130 150 10,900  Level Houston Center
04:04PM 30.7069 -100.7125 97° East 131 151 10,900  Level Houston Center
04:05PM 30.7019 -100.6711 98° East 131 151 10,900  Level Houston Center
04:06PM 30.6972 -100.6281 97° East 132 152 10,900  Level Houston Center
04:07PM 30.6914 -100.5858 99° East 132 152 10,900  Level Houston Center
04:08PM 30.6869 -100.5436 97° East 132 152 10,900  Level Houston Center
04:09PM 30.6806 -100.4944 99° East 130 150 10,900  Level Houston Center
04:10PM 30.6769 -100.4542 96° East 127 146 10,900  Level Houston Center
04:11PM 30.6711 -100.4128 99° East 128 147 10,900  Level Houston Center
04:12PM 30.6658 -100.3711 98° East 130 150 10,900  Level Houston Center
04:13PM 30.6617 -100.3297 97° East 129 148 10,900  Level Houston Center
04:14PM 30.6561 -100.2892 99° East 128 147 10,900  Level Houston Center
04:15PM 30.6506 -100.2403 98° East 128 147 10,900  Level Houston Center
04:16PM 30.6528 -100.1967 87° East 132 152 10,900  Level Houston Center
04:18PM 30.6542 -100.1553 88° East 130 150 10,900  Level Houston Center
04:19PM 30.6556 -100.1139 88° East 129 148 10,900  Level Houston Center
04:20PM 30.6556 -100.0725 90° East 128 147 10,900  Level Houston Center
04:21PM 30.6558 -100.0314 90° East 128 147 10,900  Level Houston Center
04:22PM 30.6575 -99.9892 87° East 130 150 10,900  Level Houston Center
04:23PM 30.6575 -99.9389 90° East 129 148 10,900  Level Houston Center
04:24PM 30.6594 -99.8961 87° East 131 151 10,900  Level Houston Center
04:25PM 30.6592 -99.8561 90° East 127 146 11,000  Climbing Houston Center
04:26PM 30.6606 -99.8164 88° East 124 143 11,000  Level Houston Center
04:27PM 30.6622 -99.7756 87° East 125 144 11,000  Level Houston Center
04:28PM 30.6625 -99.7344 90° East 126 145 11,000  Level Houston Center
04:29PM 30.6633 -99.6850 89° East 127 146 11,000  Level Houston Center
04:30PM 30.6639 -99.6425 89° East 129 148 11,000  Level Houston Center
04:31PM 30.6650 -99.6008 88° East 130 150 11,000  Level Houston Center
04:32PM 30.6647 -99.5586 90° East 130 150 11,000  Level Houston Center
04:33PM 30.6661 -99.5169 88° East 130 150 11,000  Level Houston Center
04:34PM 30.6664 -99.4758 90° East 128 147 11,000 -60 Level Houston Center
04:35PM 30.6667 -99.4261 90° East 129 148 10,900  Descending Houston Center
04:36PM 30.6669 -99.3861 90° East 125 144 11,000  Climbing Houston Center
04:37PM 30.6689 -99.3450 87° East 126 145 11,000  Level Houston Center
04:38PM 30.6689 -99.3039 90° East 127 146 11,000  Level Houston Center
04:39PM 30.6686 -99.2631 90° East 126 145 11,000  Level Houston Center
04:40PM 30.6689 -99.2214 90° East 128 147 11,000  Level Houston Center
04:41PM 30.6711 -99.1719 87° East 128 147 11,000  Level Houston Center
04:42PM 30.6700 -99.1331 92° East 127 146 11,000 -180 Level Houston Center
04:43PM 30.6714 -99.0914 88° East 128 147 10,700 -480 Descending Houston Center
04:44PM 30.6722 -99.0369 89° East 141 162 10,100 -540 Descending Houston Center
04:45PM 30.6708 -98.9900 92° East 143 165 9,700 -480 Descending Houston Center
04:46PM 30.6717 -98.9439 89° East 143 165 9,200 -480 Descending Houston Center
04:48PM 30.6722 -98.8972 89° East 143 165 8,700 -480 Descending Houston Center
04:49PM 30.6731 -98.8508 89° East 143 165 8,200 -540 Descending Houston Center
04:50PM 30.6742 -98.8061 88° East 140 161 7,700 -540 Descending Houston Center
04:51PM 30.6736 -98.7617 91° East 137 158 7,200 -540 Descending Houston Center
04:52PM 30.6736 -98.7078 90° East 139 160 6,600 -540 Descending Houston Center
04:53PM 30.6750 -98.6658 88° East 133 153 6,100 -300 Descending Houston Center
04:54PM 30.6758 -98.6217 89° East 134 154 6,000 -60 Descending Houston Center
04:55PM 30.6750 -98.5794 91° East 132 152 6,000  Level Houston Center
04:56PM 30.6750 -98.5347 90° East 134 154 6,000  Level Houston Center
04:57PM 30.6750 -98.4919 90° East 133 153 6,000  Level Houston Center
04:58PM 30.6756 -98.4475 89° East 134 154 6,000  Level Houston Center
04:59PM 30.6758 -98.3964 90° East 135 155 6,000  Level Houston Center
05:00PM 30.6750 -98.3522 91° East 134 154 6,000  Level Houston Center
05:01PM 30.6753 -98.3064 90° East 138 159 6,000  Level Houston Center
05:02PM 30.6767 -98.2636 88° East 135 155 6,000 -60 Level Houston Center
05:03PM 30.6778 -98.2189 88° East 135 155 5,900 -60 Descending Houston Center
05:04PM 30.6772 -98.1753 91° East 135 155 5,900  Level Houston Center
05:05PM 30.6772 -98.1319 90° East 134 154 6,000  Climbing Houston Center
05:06PM 30.6772 -98.0814 90° East 134 154 6,000 -240 Level Houston Center
05:07PM 30.6769 -98.0364 90° East 136 157 5,600 -480 Descending Houston Center
05:08PM 30.6778 -97.9917 89° East 137 158 5,100 -360 Descending Houston Center
05:09PM 30.6781 -97.9472 90° East 137 158 4,900 -420 Descending Houston Center
05:10PM 30.6783 -97.9078 90° East 130 150 4,300 -540 Descending Houston Center
05:11PM 30.6781 -97.8669 90° East 125 144 3,800 -540 Descending Houston Center
05:12PM 30.6783 -97.8258 90° East 126 145 3,300 -540 Descending Houston Center
05:13PM 30.6781 -97.7758 90° East 129 148 2,700 -660 Descending Houston Center
05:14PM 30.6783 -97.7322 90° East 132 152 2,000 -360 Descending Houston Center
05:15PM 30.6972 -97.7117 43° Northeast 129 148 2,000  Level Houston Center
05:17PM 30.7306 -97.7047 10° North 124 143 2,100 -240 Climbing Houston Center
05:18PM 30.7211 -97.6778 112° Southeast 99 114 1,600 -480 Descending Houston Center
05:19PM 30.6967 -97.6767 178° South 93 107 1,100 -480 Descending Houston Center